createdAt,value
2018-04-28T00:00:10.645Z,0.00
2018-04-28T00:01:10.654Z,0.00
2018-04-28T00:02:10.662Z,0.00
2018-04-28T00:03:10.679Z,0.00
2018-04-28T00:04:10.687Z,0.00
2018-04-28T00:05:11.468Z,0.00
2018-04-28T00:06:10.709Z,0.00
2018-04-28T00:07:10.720Z,0.00
2018-04-28T00:08:10.732Z,0.00
2018-04-28T00:09:10.743Z,0.00
2018-04-28T00:10:10.754Z,0.00
2018-04-28T00:11:10.776Z,0.00
2018-04-28T00:12:10.780Z,0.00
2018-04-28T00:14:42.977Z,0.00
2018-04-28T00:15:43.022Z,0.00
2018-04-28T00:17:47.450Z,0.00
2018-04-28T00:18:47.545Z,0.00
2018-04-28T00:19:47.534Z,0.00
2018-04-28T00:20:47.487Z,0.00
2018-04-28T00:21:47.505Z,0.00
2018-04-28T00:22:47.508Z,0.00
2018-04-28T00:23:47.524Z,0.00
2018-04-28T00:24:47.540Z,0.00
2018-04-28T00:25:47.544Z,0.00
2018-04-28T00:26:47.552Z,0.00
2018-04-28T00:27:47.555Z,0.00
2018-04-28T00:28:47.586Z,0.00
2018-04-28T00:29:47.582Z,0.00
2018-04-28T00:30:47.602Z,0.00
2018-04-28T00:31:47.599Z,0.00
2018-04-28T00:32:47.610Z,0.00
2018-04-28T00:33:47.630Z,0.00
2018-04-28T00:34:47.638Z,0.00
2018-04-28T00:35:47.648Z,0.00
2018-04-28T00:36:47.663Z,0.00
2018-04-28T00:37:47.670Z,0.00
2018-04-28T00:38:47.682Z,0.00
2018-04-28T00:39:47.693Z,0.00
2018-04-28T00:40:47.707Z,0.00
2018-04-28T00:41:47.721Z,0.00
2018-04-28T00:42:47.724Z,0.00
2018-04-28T00:43:47.789Z,0.00
2018-04-28T00:44:47.748Z,0.00
2018-04-28T00:45:47.773Z,0.00
2018-04-28T00:46:47.773Z,0.00
2018-04-28T00:47:47.778Z,0.00
2018-04-28T00:48:47.795Z,0.00
2018-04-28T00:49:47.799Z,0.00
2018-04-28T00:50:47.865Z,0.00
2018-04-28T00:51:47.833Z,0.00
2018-04-28T00:52:47.834Z,0.00
2018-04-28T00:53:47.850Z,0.00
2018-04-28T00:54:47.859Z,0.00
2018-04-28T00:55:47.870Z,0.00
2018-04-28T00:56:47.885Z,0.00
2018-04-28T00:57:47.932Z,0.00
2018-04-28T00:58:47.900Z,0.00
2018-04-28T00:59:47.913Z,0.00
2018-04-28T01:00:47.932Z,0.00
2018-04-28T01:01:47.939Z,0.00
2018-04-28T01:02:47.947Z,0.00
2018-04-28T01:03:47.954Z,0.00
2018-04-28T01:04:48.016Z,0.00
2018-04-28T01:05:47.982Z,0.00
2018-04-28T01:06:47.989Z,0.00
2018-04-28T01:07:48.005Z,0.00
2018-04-28T01:08:48.019Z,0.00
2018-04-28T01:09:48.023Z,0.00
2018-04-28T01:10:48.031Z,0.00
2018-04-28T01:11:48.056Z,0.00
2018-04-28T01:12:48.058Z,0.00
2018-04-28T01:13:48.073Z,0.00
2018-04-28T01:14:48.084Z,0.00
2018-04-28T01:15:48.092Z,0.00
2018-04-28T01:16:48.107Z,0.00
2018-04-28T01:17:48.119Z,0.00
2018-04-28T01:18:48.124Z,0.00
2018-04-28T01:19:48.130Z,0.00
2018-04-28T01:20:48.162Z,0.00
2018-04-28T01:21:48.165Z,0.00
2018-04-28T01:22:48.167Z,0.00
2018-04-28T01:23:48.187Z,0.00
2018-04-28T01:24:48.188Z,0.00
2018-04-28T01:25:48.208Z,0.00
2018-04-28T01:26:48.214Z,0.00
2018-04-28T01:27:48.225Z,0.00
2018-04-28T01:28:48.239Z,0.00
2018-04-28T01:29:48.521Z,0.00
2018-04-28T01:30:48.254Z,0.00
2018-04-28T01:31:48.266Z,0.00
2018-04-28T01:32:48.308Z,0.00
2018-04-28T01:33:48.301Z,0.00
2018-04-28T01:34:48.896Z,0.00
2018-04-28T01:35:48.310Z,0.00
2018-04-28T01:36:48.320Z,0.00
2018-04-28T01:37:48.345Z,0.00
2018-04-28T01:38:48.342Z,0.00
2018-04-28T01:39:48.365Z,0.00
2018-04-28T01:40:48.367Z,0.00
2018-04-28T01:41:48.884Z,0.00
2018-04-28T01:42:48.389Z,0.00
2018-04-28T01:43:48.396Z,0.00
2018-04-28T01:44:48.419Z,0.00
2018-04-28T01:45:48.431Z,0.00
2018-04-28T01:46:48.431Z,0.00
2018-04-28T01:47:48.453Z,0.00
2018-04-28T01:48:48.454Z,0.00
2018-04-28T01:49:48.465Z,0.00
2018-04-28T01:50:48.482Z,0.00
2018-04-28T01:51:48.499Z,0.00
2018-04-28T01:52:48.505Z,0.00
2018-04-28T01:53:48.509Z,0.00
2018-04-28T01:54:48.578Z,0.00
2018-04-28T01:55:48.531Z,0.00
2018-04-28T01:56:48.559Z,0.00
2018-04-28T01:57:48.554Z,0.00
2018-04-28T01:58:50.008Z,0.00
2018-04-28T01:59:48.575Z,0.00
2018-04-28T02:00:48.597Z,0.00
2018-04-28T02:01:48.600Z,0.00
2018-04-28T02:02:48.615Z,0.00
2018-04-28T02:03:48.622Z,0.00
2018-04-28T02:04:48.636Z,0.00
2018-04-28T02:05:48.644Z,0.00
2018-04-28T02:06:48.660Z,0.00
2018-04-28T02:07:48.663Z,0.00
2018-04-28T02:08:48.678Z,0.00
2018-04-28T02:09:48.686Z,0.00
2018-04-28T02:10:48.698Z,0.00
2018-04-28T02:11:48.714Z,0.00
2018-04-28T02:12:48.721Z,0.00
2018-04-28T02:13:48.743Z,0.00
2018-04-28T02:14:48.742Z,0.00
2018-04-28T02:15:48.754Z,0.00
2018-04-28T02:16:48.765Z,0.00
2018-04-28T02:17:48.783Z,0.00
2018-04-28T02:18:48.784Z,0.00
2018-04-28T02:19:48.798Z,0.00
2018-04-28T02:20:48.812Z,0.00
2018-04-28T02:21:48.817Z,0.00
2018-04-28T02:22:48.830Z,0.00
2018-04-28T02:23:48.840Z,0.00
2018-04-28T02:24:48.859Z,0.00
2018-04-28T02:25:48.865Z,0.00
2018-04-28T02:26:48.872Z,0.00
2018-04-28T02:27:48.888Z,0.00
2018-04-28T02:28:48.901Z,0.00
2018-04-28T02:29:48.911Z,0.00
2018-04-28T02:30:48.918Z,0.00
2018-04-28T02:31:48.933Z,0.00
2018-04-28T02:32:48.936Z,0.00
2018-04-28T02:33:48.951Z,0.00
2018-04-28T02:34:48.961Z,0.00
2018-04-28T02:35:48.971Z,0.00
2018-04-28T02:36:48.982Z,0.00
2018-04-28T02:37:49.002Z,0.00
2018-04-28T02:38:49.013Z,0.00
2018-04-28T02:39:49.018Z,0.00
2018-04-28T02:40:49.025Z,0.00
2018-04-28T02:41:49.035Z,0.00
2018-04-28T02:42:49.047Z,0.00
2018-04-28T02:43:49.068Z,0.00
2018-04-28T02:44:49.071Z,0.00
2018-04-28T02:45:49.088Z,0.00
2018-04-28T02:46:49.090Z,0.00
2018-04-28T02:47:49.107Z,0.00
2018-04-28T02:48:49.121Z,0.00
2018-04-28T02:49:49.123Z,0.00
2018-04-28T02:50:49.138Z,0.00
2018-04-28T02:51:49.147Z,0.00
2018-04-28T02:52:49.159Z,0.00
2018-04-28T02:53:49.168Z,0.00
2018-04-28T02:54:49.178Z,0.00
2018-04-28T02:55:49.188Z,0.00
2018-04-28T02:56:49.200Z,0.00
2018-04-28T02:57:49.236Z,0.00
2018-04-28T02:58:49.223Z,0.00
2018-04-28T02:59:49.230Z,0.00
2018-04-28T03:00:49.242Z,0.00
2018-04-28T03:01:49.291Z,0.00
2018-04-28T03:02:49.263Z,0.00
2018-04-28T03:03:49.288Z,0.00
2018-04-28T03:04:49.288Z,0.00
2018-04-28T03:05:49.298Z,0.00
2018-04-28T03:06:49.308Z,0.00
2018-04-28T03:07:49.315Z,0.00
2018-04-28T03:08:49.337Z,0.00
2018-04-28T03:09:49.352Z,0.00
2018-04-28T03:10:49.352Z,0.00
2018-04-28T03:11:49.364Z,0.00
2018-04-28T03:12:49.373Z,0.00
2018-04-28T03:13:49.388Z,0.00
2018-04-28T03:14:49.396Z,0.00
2018-04-28T03:15:49.405Z,0.00
2018-04-28T03:16:49.441Z,0.00
2018-04-28T03:17:49.427Z,0.00
2018-04-28T03:18:49.436Z,0.00
2018-04-28T03:19:49.448Z,0.00
2018-04-28T03:20:49.458Z,0.00
2018-04-28T03:21:49.470Z,0.00
2018-04-28T03:22:49.481Z,0.00
2018-04-28T03:23:49.488Z,0.00
2018-04-28T03:24:49.507Z,0.00
2018-04-28T03:25:49.517Z,0.00
2018-04-28T03:26:49.523Z,0.00
2018-04-28T03:27:49.531Z,0.00
2018-04-28T03:28:49.543Z,0.00
2018-04-28T03:29:49.558Z,0.00
2018-04-28T03:30:49.580Z,0.00
2018-04-28T03:31:49.576Z,0.00
2018-04-28T03:32:49.587Z,0.00
2018-04-28T03:33:49.601Z,0.00
2018-04-28T03:34:49.609Z,0.00
2018-04-28T03:35:49.631Z,0.00
2018-04-28T03:36:49.648Z,0.00
2018-04-28T03:37:49.643Z,0.00
2018-04-28T03:38:49.657Z,0.00
2018-04-28T03:39:49.664Z,0.00
2018-04-28T03:40:49.675Z,0.00
2018-04-28T03:41:49.682Z,0.00
2018-04-28T03:42:49.694Z,0.00
2018-04-28T03:43:49.716Z,0.00
2018-04-28T03:44:49.716Z,0.00
2018-04-28T03:45:49.731Z,0.00
2018-04-28T03:46:49.738Z,0.00
2018-04-28T03:47:49.749Z,0.00
2018-04-28T03:48:49.758Z,0.00
2018-04-28T03:49:49.767Z,0.00
2018-04-28T03:50:49.797Z,0.00
2018-04-28T03:51:49.792Z,0.00
2018-04-28T03:52:49.802Z,0.00
2018-04-28T03:53:49.813Z,0.00
2018-04-28T03:54:49.821Z,0.00
2018-04-28T03:55:49.845Z,0.00
2018-04-28T03:56:49.919Z,0.00
2018-04-28T03:57:49.857Z,0.00
2018-04-28T03:58:49.873Z,0.00
2018-04-28T03:59:49.878Z,0.00
2018-04-28T04:00:49.883Z,0.00
2018-04-28T04:01:49.899Z,0.00
2018-04-28T04:02:49.911Z,0.00
2018-04-28T04:03:49.930Z,0.00
2018-04-28T04:04:49.928Z,0.00
2018-04-28T04:05:49.938Z,0.00
2018-04-28T04:06:49.947Z,0.00
2018-04-28T04:07:49.961Z,5.63
2018-04-28T04:08:50.044Z,5.63
2018-04-28T04:09:49.988Z,5.63
2018-04-28T04:10:49.991Z,5.63
2018-04-28T04:11:50.007Z,5.63
2018-04-28T04:12:50.010Z,5.63
2018-04-28T04:13:50.025Z,5.63
2018-04-28T04:14:50.037Z,5.63
2018-04-28T04:15:50.054Z,5.63
2018-04-28T04:16:50.057Z,5.63
2018-04-28T04:17:50.076Z,5.63
2018-04-28T04:18:50.075Z,5.63
2018-04-28T04:19:50.085Z,5.63
2018-04-28T04:20:50.098Z,5.63
2018-04-28T04:21:50.111Z,5.63
2018-04-28T04:22:50.118Z,5.63
2018-04-28T04:23:50.135Z,11.25
2018-04-28T04:24:50.142Z,11.25
2018-04-28T04:25:50.148Z,11.25
2018-04-28T04:26:50.162Z,11.25
2018-04-28T04:27:50.169Z,11.25
2018-04-28T04:28:50.178Z,11.25
2018-04-28T04:29:50.196Z,11.25
2018-04-28T04:30:50.207Z,11.25
2018-04-28T04:31:50.247Z,11.25
2018-04-28T04:32:50.223Z,11.25
2018-04-28T04:33:50.232Z,11.25
2018-04-28T04:34:50.251Z,11.25
2018-04-28T04:35:50.261Z,16.88
2018-04-28T04:36:50.275Z,16.88
2018-04-28T04:37:50.276Z,16.88
2018-04-28T04:38:50.288Z,16.88
2018-04-28T04:39:50.300Z,16.88
2018-04-28T04:40:50.341Z,16.88
2018-04-28T04:41:50.323Z,22.50
2018-04-28T04:42:50.333Z,22.50
2018-04-28T04:43:50.351Z,22.50
2018-04-28T04:44:50.349Z,22.50
2018-04-28T04:45:50.361Z,22.50
2018-04-28T04:46:50.372Z,22.50
2018-04-28T04:47:50.382Z,22.50
2018-04-28T04:48:50.396Z,22.50
2018-04-28T04:49:50.416Z,22.50
2018-04-28T04:50:50.413Z,22.50
2018-04-28T04:51:50.427Z,22.50
2018-04-28T04:52:50.435Z,22.50
2018-04-28T04:53:50.447Z,22.50
2018-04-28T04:54:50.455Z,22.50
2018-04-28T04:55:50.475Z,22.50
2018-04-28T04:56:50.477Z,22.50
2018-04-28T04:57:50.486Z,22.50
2018-04-28T04:58:50.571Z,28.13
2018-04-28T04:59:50.542Z,28.13
2018-04-28T05:00:50.552Z,28.13
2018-04-28T05:01:50.536Z,22.50
2018-04-28T05:02:50.546Z,22.50
2018-04-28T05:03:50.550Z,22.50
2018-04-28T05:04:50.566Z,28.13
2018-04-28T05:05:50.574Z,28.13
2018-04-28T05:06:50.592Z,28.13
2018-04-28T05:07:50.605Z,28.13
2018-04-28T05:08:50.613Z,33.75
2018-04-28T05:09:50.619Z,33.75
2018-04-28T05:10:50.627Z,28.13
2018-04-28T05:11:50.639Z,28.13
2018-04-28T05:12:50.645Z,33.75
2018-04-28T05:13:50.667Z,33.75
2018-04-28T05:14:50.672Z,33.75
2018-04-28T05:15:50.685Z,33.75
2018-04-28T05:16:50.691Z,39.38
2018-04-28T05:17:50.703Z,39.38
2018-04-28T05:18:50.710Z,45.00
2018-04-28T05:19:50.725Z,50.63
2018-04-28T05:20:50.741Z,56.25
2018-04-28T05:21:50.744Z,67.50
2018-04-28T05:22:50.757Z,67.50
2018-04-28T05:23:50.773Z,73.13
2018-04-28T05:24:50.777Z,67.50
2018-04-28T05:25:50.805Z,67.50
2018-04-28T05:26:50.824Z,67.50
2018-04-28T05:27:50.812Z,67.50
2018-04-28T05:28:50.823Z,67.50
2018-04-28T05:29:50.831Z,67.50
2018-04-28T05:30:50.845Z,67.50
2018-04-28T05:31:50.851Z,67.50
2018-04-28T05:32:50.871Z,73.13
2018-04-28T05:33:50.874Z,73.13
2018-04-28T05:34:50.883Z,73.13
2018-04-28T05:35:50.894Z,78.75
2018-04-28T05:36:50.915Z,84.38
2018-04-28T05:37:50.917Z,84.38
2018-04-28T05:38:50.932Z,84.38
2018-04-28T05:39:50.935Z,84.38
2018-04-28T05:40:50.950Z,90.00
2018-04-28T05:41:50.961Z,95.63
2018-04-28T05:42:50.969Z,95.63
2018-04-28T05:43:50.983Z,95.63
2018-04-28T05:44:51.007Z,95.63
2018-04-28T05:45:51.005Z,106.88
2018-04-28T05:46:51.019Z,101.25
2018-04-28T05:47:51.032Z,101.25
2018-04-28T05:48:51.034Z,101.25
2018-04-28T05:49:51.053Z,101.25
2018-04-28T05:50:51.062Z,106.88
2018-04-28T05:51:51.070Z,118.13
2018-04-28T05:52:51.083Z,129.38
2018-04-28T05:53:51.091Z,118.13
2018-04-28T05:54:51.100Z,123.75
2018-04-28T05:55:51.122Z,123.75
2018-04-28T05:56:51.157Z,123.75
2018-04-28T05:57:51.223Z,129.38
2018-04-28T05:58:51.147Z,135.00
2018-04-28T05:59:51.157Z,129.38
2018-04-28T06:00:51.168Z,129.38
2018-04-28T06:01:51.189Z,129.38
2018-04-28T06:02:51.195Z,129.38
2018-04-28T06:03:51.213Z,129.38
2018-04-28T06:04:51.211Z,140.63
2018-04-28T06:05:51.223Z,151.88
2018-04-28T06:06:51.235Z,157.50
2018-04-28T06:07:51.246Z,151.88
2018-04-28T06:08:51.256Z,140.63
2018-04-28T06:09:51.267Z,135.00
2018-04-28T06:10:51.293Z,135.00
2018-04-28T06:11:51.295Z,135.00
2018-04-28T06:12:51.303Z,146.25
2018-04-28T06:13:51.316Z,151.88
2018-04-28T06:14:51.324Z,157.50
2018-04-28T06:15:51.336Z,151.88
2018-04-28T06:16:51.359Z,157.50
2018-04-28T06:17:51.363Z,163.13
2018-04-28T06:18:51.372Z,174.38
2018-04-28T06:19:51.402Z,180.00
2018-04-28T06:20:51.397Z,180.00
2018-04-28T06:21:51.410Z,174.38
2018-04-28T06:22:51.415Z,163.13
2018-04-28T06:23:51.432Z,163.13
2018-04-28T06:24:51.438Z,157.50
2018-04-28T06:25:51.477Z,157.50
2018-04-28T06:26:51.461Z,157.50
2018-04-28T06:27:51.475Z,157.50
2018-04-28T06:28:51.484Z,163.13
2018-04-28T06:29:51.499Z,168.75
2018-04-28T06:30:51.511Z,180.00
2018-04-28T06:31:51.526Z,185.63
2018-04-28T06:32:51.530Z,191.25
2018-04-28T06:33:51.541Z,191.25
2018-04-28T06:34:51.559Z,208.13
2018-04-28T06:35:51.648Z,202.50
2018-04-28T06:36:51.586Z,219.38
2018-04-28T06:37:51.590Z,236.25
2018-04-28T06:38:51.601Z,241.88
2018-04-28T06:39:51.616Z,253.13
2018-04-28T06:40:51.624Z,247.50
2018-04-28T06:41:51.642Z,253.13
2018-04-28T06:42:51.651Z,258.75
2018-04-28T06:43:51.659Z,258.75
2018-04-28T06:44:51.671Z,258.75
2018-04-28T06:45:51.689Z,264.38
2018-04-28T06:46:51.710Z,270.00
2018-04-28T06:47:51.740Z,264.38
2018-04-28T06:48:51.721Z,264.38
2018-04-28T06:49:51.730Z,264.38
2018-04-28T06:50:51.744Z,264.38
2018-04-28T06:51:51.760Z,258.75
2018-04-28T06:52:51.767Z,264.38
2018-04-28T06:53:51.786Z,264.38
2018-04-28T06:54:51.791Z,264.38
2018-04-28T06:55:51.812Z,258.75
2018-04-28T06:56:51.838Z,258.75
2018-04-28T06:57:51.841Z,253.13
2018-04-28T06:58:51.843Z,258.75
2018-04-28T06:59:51.900Z,258.75
2018-04-28T07:00:51.868Z,264.38
2018-04-28T07:01:51.878Z,258.75
2018-04-28T07:02:51.895Z,264.38
2018-04-28T07:03:51.916Z,264.38
2018-04-28T07:04:51.916Z,275.63
2018-04-28T07:05:51.931Z,264.38
2018-04-28T07:06:51.939Z,258.75
2018-04-28T07:07:51.953Z,258.75
2018-04-28T07:08:51.967Z,258.75
2018-04-28T07:09:51.997Z,264.38
2018-04-28T07:10:52.015Z,258.75
2018-04-28T07:11:52.006Z,258.75
2018-04-28T07:12:52.029Z,258.75
2018-04-28T07:13:52.031Z,270.00
2018-04-28T07:14:52.043Z,258.75
2018-04-28T07:15:52.068Z,270.00
2018-04-28T07:16:52.074Z,281.25
2018-04-28T07:17:52.091Z,298.13
2018-04-28T07:18:52.095Z,298.13
2018-04-28T07:19:52.126Z,298.13
2018-04-28T07:20:52.123Z,292.50
2018-04-28T07:21:52.138Z,286.88
2018-04-28T07:22:52.149Z,292.50
2018-04-28T07:23:52.168Z,286.88
2018-04-28T07:24:52.177Z,292.50
2018-04-28T07:25:52.187Z,281.25
2018-04-28T07:26:52.195Z,281.25
2018-04-28T07:27:52.209Z,281.25
2018-04-28T07:28:52.222Z,270.00
2018-04-28T07:29:52.238Z,258.75
2018-04-28T07:30:52.254Z,253.13
2018-04-28T07:31:52.263Z,225.00
2018-04-28T07:32:52.279Z,208.13
2018-04-28T07:33:52.291Z,208.13
2018-04-28T07:34:52.304Z,208.13
2018-04-28T07:35:52.313Z,202.50
2018-04-28T07:36:52.340Z,196.88
2018-04-28T07:37:52.347Z,185.63
2018-04-28T07:38:52.354Z,174.38
2018-04-28T07:39:52.368Z,185.63
2018-04-28T07:40:52.380Z,191.25
2018-04-28T07:41:52.393Z,185.63
2018-04-28T07:42:52.403Z,185.63
2018-04-28T07:43:52.421Z,185.63
2018-04-28T07:44:52.435Z,185.63
2018-04-28T07:45:52.445Z,185.63
2018-04-28T07:46:52.468Z,185.63
2018-04-28T07:47:52.471Z,185.63
2018-04-28T07:48:52.484Z,191.25
2018-04-28T07:49:52.497Z,185.63
2018-04-28T07:50:52.509Z,191.25
2018-04-28T07:51:52.523Z,185.63
2018-04-28T07:52:52.542Z,185.63
2018-04-28T07:53:52.550Z,180.00
2018-04-28T07:54:52.561Z,180.00
2018-04-28T07:55:52.579Z,180.00
2018-04-28T07:56:52.585Z,185.63
2018-04-28T07:57:52.600Z,185.63
2018-04-28T07:58:52.611Z,191.25
2018-04-28T07:59:52.678Z,191.25
2018-04-28T08:00:52.640Z,196.88
2018-04-28T08:01:52.651Z,196.88
2018-04-28T08:02:52.670Z,191.25
2018-04-28T08:03:52.692Z,191.25
2018-04-28T08:04:52.689Z,191.25
2018-04-28T08:05:52.711Z,191.25
2018-04-28T08:06:52.716Z,191.25
2018-04-28T08:07:52.741Z,191.25
2018-04-28T08:08:52.742Z,196.88
2018-04-28T08:09:52.755Z,196.88
2018-04-28T08:10:52.769Z,196.88
2018-04-28T08:11:52.779Z,202.50
2018-04-28T08:12:52.793Z,202.50
2018-04-28T08:13:52.808Z,202.50
2018-04-28T08:14:52.828Z,208.13
2018-04-28T08:15:52.833Z,208.13
2018-04-28T08:16:52.845Z,213.75
2018-04-28T08:17:52.858Z,213.75
2018-04-28T08:18:52.869Z,213.75
2018-04-28T08:19:52.895Z,219.38
2018-04-28T08:20:52.901Z,219.38
2018-04-28T08:21:52.911Z,219.38
2018-04-28T08:22:52.925Z,219.38
2018-04-28T08:23:52.933Z,225.00
2018-04-28T08:24:52.951Z,230.63
2018-04-28T08:25:52.960Z,219.38
2018-04-28T08:26:52.971Z,230.63
2018-04-28T08:27:52.995Z,236.25
2018-04-28T08:28:52.999Z,236.25
2018-04-28T08:29:53.030Z,241.88
2018-04-28T08:30:53.024Z,247.50
2018-04-28T08:31:53.039Z,247.50
2018-04-28T08:32:53.050Z,241.88
2018-04-28T08:33:55.033Z,241.88
2018-04-28T08:34:53.111Z,236.25
2018-04-28T08:35:53.092Z,225.00
2018-04-28T08:36:53.126Z,225.00
2018-04-28T08:37:53.120Z,230.63
2018-04-28T08:38:53.131Z,236.25
2018-04-28T08:39:53.143Z,236.25
2018-04-28T08:40:53.186Z,236.25
2018-04-28T08:41:53.175Z,236.25
2018-04-28T08:42:53.187Z,236.25
2018-04-28T08:43:53.197Z,236.25
2018-04-28T08:44:53.210Z,230.63
2018-04-28T08:45:53.223Z,230.63
2018-04-28T08:46:53.235Z,241.88
2018-04-28T08:47:53.248Z,247.50
2018-04-28T08:48:53.265Z,247.50
2018-04-28T08:49:53.280Z,247.50
2018-04-28T08:50:53.290Z,253.13
2018-04-28T08:51:53.301Z,253.13
2018-04-28T08:52:53.334Z,253.13
2018-04-28T08:53:53.330Z,258.75
2018-04-28T08:54:53.386Z,270.00
2018-04-28T08:55:53.356Z,281.25
2018-04-28T08:56:53.372Z,286.88
2018-04-28T08:57:53.382Z,292.50
2018-04-28T08:58:53.397Z,298.13
2018-04-28T08:59:53.407Z,298.13
2018-04-28T09:00:53.421Z,292.50
2018-04-28T09:01:53.438Z,286.88
2018-04-28T09:02:53.449Z,281.25
2018-04-28T09:03:53.461Z,270.00
2018-04-28T09:04:53.475Z,264.38
2018-04-28T09:05:53.495Z,270.00
2018-04-28T09:06:53.503Z,281.25
2018-04-28T09:07:53.518Z,275.63
2018-04-28T09:08:53.536Z,270.00
2018-04-28T09:09:53.560Z,270.00
2018-04-28T09:10:53.555Z,264.38
2018-04-28T09:11:53.569Z,264.38
2018-04-28T09:12:53.588Z,270.00
2018-04-28T09:13:53.596Z,286.88
2018-04-28T09:14:53.609Z,286.88
2018-04-28T09:15:53.636Z,281.25
2018-04-28T09:16:53.643Z,275.63
2018-04-28T09:17:53.652Z,264.38
2018-04-28T09:18:53.719Z,270.00
2018-04-28T09:19:53.677Z,275.63
2018-04-28T09:20:53.691Z,286.88
2018-04-28T09:21:53.721Z,286.88
2018-04-28T09:22:53.718Z,281.25
2018-04-28T09:23:53.737Z,281.25
2018-04-28T09:24:53.746Z,281.25
2018-04-28T09:25:53.767Z,281.25
2018-04-28T09:26:53.773Z,286.88
2018-04-28T09:27:53.800Z,292.50
2018-04-28T09:28:53.815Z,303.75
2018-04-28T09:29:53.817Z,292.50
2018-04-28T09:30:53.845Z,286.88
2018-04-28T09:31:53.840Z,281.25
2018-04-28T09:32:53.883Z,275.63
2018-04-28T09:33:53.900Z,270.00
2018-04-28T09:34:53.883Z,264.38
2018-04-28T09:35:53.898Z,275.63
2018-04-28T09:36:53.922Z,270.00
2018-04-28T09:37:53.926Z,281.25
2018-04-28T09:38:53.954Z,286.88
2018-04-28T09:39:53.965Z,298.13
2018-04-28T09:40:53.970Z,298.13
2018-04-28T09:41:53.990Z,303.75
2018-04-28T09:42:54.009Z,298.13
2018-04-28T09:43:54.015Z,292.50
2018-04-28T09:44:54.029Z,292.50
2018-04-28T09:45:54.039Z,292.50
2018-04-28T09:46:54.052Z,292.50
2018-04-28T09:47:54.070Z,292.50
2018-04-28T09:48:54.087Z,292.50
2018-04-28T09:49:54.095Z,292.50
2018-04-28T09:50:54.114Z,292.50
2018-04-28T09:51:54.127Z,292.50
2018-04-28T09:52:54.141Z,298.13
2018-04-28T09:53:54.153Z,309.38
2018-04-28T09:54:54.166Z,309.38
2018-04-28T09:55:54.199Z,315.00
2018-04-28T09:56:54.194Z,320.63
2018-04-28T09:57:54.211Z,326.25
2018-04-28T09:58:54.239Z,326.25
2018-04-28T09:59:54.236Z,326.25
2018-04-28T10:00:54.248Z,315.00
2018-04-28T10:01:54.263Z,309.38
2018-04-28T10:02:54.282Z,303.75
2018-04-28T10:03:54.309Z,309.38
2018-04-28T10:04:54.309Z,303.75
2018-04-28T10:05:54.353Z,315.00
2018-04-28T10:06:54.337Z,315.00
2018-04-28T10:07:54.376Z,326.25
2018-04-28T10:08:54.366Z,331.88
2018-04-28T10:09:54.379Z,337.50
2018-04-28T10:10:54.392Z,354.38
2018-04-28T10:11:54.426Z,365.63
2018-04-28T10:12:54.424Z,382.50
2018-04-28T10:13:54.443Z,388.13
2018-04-28T10:14:54.454Z,382.50
2018-04-28T10:15:54.466Z,376.88
2018-04-28T10:16:54.484Z,382.50
2018-04-28T10:17:54.500Z,399.38
2018-04-28T10:18:54.512Z,455.63
2018-04-28T10:19:54.594Z,450.00
2018-04-28T10:20:54.540Z,450.00
2018-04-28T10:21:54.555Z,438.75
2018-04-28T10:22:54.574Z,433.13
2018-04-28T10:23:54.582Z,427.50
2018-04-28T10:24:54.600Z,438.75
2018-04-28T10:25:54.620Z,421.88
2018-04-28T10:26:54.631Z,450.00
2018-04-28T10:27:54.647Z,438.75
2018-04-28T10:28:54.667Z,433.13
2018-04-28T10:29:54.687Z,433.13
2018-04-28T10:30:54.717Z,433.13
2018-04-28T10:31:54.702Z,438.75
2018-04-28T10:32:54.739Z,421.88
2018-04-28T10:33:54.740Z,433.13
2018-04-28T10:34:54.751Z,416.25
2018-04-28T10:35:54.766Z,416.25
2018-04-28T10:36:54.790Z,410.63
2018-04-28T10:37:54.808Z,421.88
2018-04-28T10:38:54.810Z,427.50
2018-04-28T10:39:54.829Z,421.88
2018-04-28T10:40:54.848Z,416.25
2018-04-28T10:41:54.856Z,410.63
2018-04-28T10:42:54.871Z,405.00
2018-04-28T10:43:54.894Z,393.75
2018-04-28T10:44:54.913Z,393.75
2018-04-28T10:45:54.916Z,382.50
2018-04-28T10:46:54.945Z,399.38
2018-04-28T10:47:54.978Z,410.63
2018-04-28T10:48:54.965Z,410.63
2018-04-28T10:49:54.983Z,410.63
2018-04-28T10:50:54.994Z,427.50
2018-04-28T10:51:55.035Z,427.50
2018-04-28T10:52:55.023Z,450.00
2018-04-28T10:53:55.210Z,444.38
2018-04-28T10:54:55.068Z,427.50
2018-04-28T10:55:55.073Z,438.75
2018-04-28T10:56:55.093Z,472.50
2018-04-28T10:57:55.111Z,517.50
2018-04-28T10:58:55.135Z,540.00
2018-04-28T10:59:55.134Z,551.25
2018-04-28T11:00:55.152Z,568.13
2018-04-28T11:01:55.186Z,607.50
2018-04-28T11:02:55.183Z,646.88
2018-04-28T11:03:55.200Z,703.13
2018-04-28T11:04:55.236Z,911.25
2018-04-28T11:05:55.228Z,1395.00
2018-04-28T11:06:55.246Z,1440.00
2018-04-28T11:07:55.261Z,1710.00
2018-04-28T11:08:55.285Z,1743.75
2018-04-28T11:09:55.297Z,1890.00
2018-04-28T11:10:55.310Z,1451.25
2018-04-28T11:11:56.086Z,1710.00
2018-04-28T11:12:55.342Z,1687.50
2018-04-28T11:13:55.358Z,1867.50
2018-04-28T11:14:55.378Z,1355.63
2018-04-28T11:15:55.395Z,1468.13
2018-04-28T11:16:55.413Z,2092.50
2018-04-28T11:17:55.430Z,2143.13
2018-04-28T11:18:55.452Z,2908.13
2018-04-28T11:19:55.545Z,2739.38
2018-04-28T11:20:55.487Z,2323.13
2018-04-28T11:21:55.500Z,1760.63
2018-04-28T11:22:55.579Z,1631.25
2018-04-28T11:23:55.542Z,973.13
2018-04-28T11:24:55.584Z,984.38
2018-04-28T11:25:55.579Z,1344.38
2018-04-28T11:26:55.591Z,1406.25
2018-04-28T11:27:55.614Z,1125.00
2018-04-28T11:28:55.634Z,1861.88
2018-04-28T11:29:55.654Z,1828.13
2018-04-28T11:30:55.669Z,1366.88
2018-04-28T11:31:55.690Z,1091.25
2018-04-28T11:32:55.768Z,1575.00
2018-04-28T11:33:55.743Z,1698.75
2018-04-28T11:34:55.747Z,1704.38
2018-04-28T11:35:55.764Z,2311.88
2018-04-28T11:36:55.797Z,2289.38
2018-04-28T11:37:55.807Z,1951.88
2018-04-28T11:38:55.826Z,1805.63
2018-04-28T11:39:55.845Z,1698.75
2018-04-28T11:40:55.869Z,1878.75
2018-04-28T11:41:55.885Z,1968.75
2018-04-28T11:42:55.901Z,1833.75
2018-04-28T11:43:55.922Z,1923.75
2018-04-28T11:44:56.128Z,1890.00
2018-04-28T11:45:56.005Z,1490.63
2018-04-28T11:46:55.991Z,1366.88
2018-04-28T11:47:56.010Z,1912.50
2018-04-28T11:48:56.037Z,1918.13
2018-04-28T11:49:56.049Z,1710.00
2018-04-28T11:50:56.082Z,2013.75
2018-04-28T11:51:56.110Z,2340.00
2018-04-28T11:52:56.173Z,2109.38
2018-04-28T11:53:56.141Z,1636.88
2018-04-28T11:54:56.146Z,1546.88
2018-04-28T11:55:56.231Z,1608.75
2018-04-28T11:56:56.204Z,1468.13
2018-04-28T11:57:56.217Z,1558.13
2018-04-28T11:58:56.239Z,1648.13
2018-04-28T11:59:56.266Z,1321.88
2018-04-28T12:00:56.275Z,1417.50
2018-04-28T12:01:56.300Z,1546.88
2018-04-28T12:02:56.318Z,1440.00
2018-04-28T12:03:56.342Z,1597.50
2018-04-28T12:04:56.365Z,1788.75
2018-04-28T12:05:56.387Z,1653.75
2018-04-28T12:06:56.407Z,1788.75
2018-04-28T12:07:56.431Z,1383.75
2018-04-28T12:08:56.453Z,1665.00
2018-04-28T12:09:56.483Z,1575.00
2018-04-28T12:10:56.501Z,1361.25
2018-04-28T12:11:56.519Z,1490.63
2018-04-28T12:12:56.543Z,1265.63
2018-04-28T12:13:56.563Z,1136.25
2018-04-28T12:14:56.584Z,1411.88
2018-04-28T12:15:56.608Z,1530.00
2018-04-28T12:16:56.644Z,1074.38
2018-04-28T12:17:56.651Z,1220.63
2018-04-28T12:18:56.680Z,1288.13
2018-04-28T12:19:56.697Z,1434.38
2018-04-28T12:20:56.782Z,1417.50
2018-04-28T12:21:56.741Z,1490.63
2018-04-28T12:22:56.807Z,1636.88
2018-04-28T12:23:56.793Z,1653.75
2018-04-28T12:24:56.810Z,1518.75
2018-04-28T12:25:56.840Z,1687.50
2018-04-28T12:26:56.858Z,1496.25
2018-04-28T12:27:56.898Z,1794.38
2018-04-28T12:28:56.900Z,1603.13
2018-04-28T12:29:57.011Z,1501.88
2018-04-28T12:30:56.943Z,1366.88
2018-04-28T12:31:56.972Z,1423.13
2018-04-28T12:32:57.022Z,1456.88
2018-04-28T12:33:57.041Z,1861.88
2018-04-28T12:34:57.035Z,1738.13
2018-04-28T12:35:57.200Z,1743.75
2018-04-28T12:36:57.092Z,2120.63
2018-04-28T12:37:57.100Z,2317.50
2018-04-28T12:38:57.128Z,1777.50
2018-04-28T12:39:57.193Z,1783.13
2018-04-28T12:40:57.199Z,2025.00
2018-04-28T12:41:57.191Z,2064.38
2018-04-28T12:42:57.261Z,2182.50
2018-04-28T12:43:57.266Z,2064.38
2018-04-28T12:44:57.259Z,1755.00
2018-04-28T12:45:57.283Z,1462.50
2018-04-28T12:46:57.319Z,1681.88